Terminal Aerodrome Forecast
Issued by NWS Duluth, MN

Home | Current Version | Previous Version | Text Only | Print | Product List | Glossary On
Versions: 1 2 3 4 5 6 7 8 9 10 11 12 13 14 15 16 17 18 19 20 21 22 23 24 25 26 27
000
FTUS43 KDLH 242300
TAFINL
TAF
KINL 242332Z 2500/2524 VRB03KT 6SM -SN BR OVC014
      TEMPO 2501/2505 2SM -SN BR OVC005
     FM250500 22005KT 3SM -SN BR OVC006
     FM251200 25006KT 6SM -FZDZ BR OVC010
     FM251700 28006KT P6SM OVC015=

USA.gov is the U.S. government's official web portal to all federal, state and local government web resources and services.